Time;durP1;ratioP1;P1;durP2;ratioP2;P2;SDS_P1;SDS_P2;PMS_P1;PMS_P2;Temp;Humidity;BMP_temperature;BMP_pressure;BME280_temperature;BME280_humidity;BME280_pressure;Samples;Min_cycle;Max_cycle;Signal;HPM_P1;HPM_P2
2022/10/12 00:00:48;;;;;;;;;;;14.40;99.90;;;;;;5059394;28;19948;-87
2022/10/12 00:03:14;;;;;;;;;;;14.50;99.90;;;;;;5059542;28;19989;-84
2022/10/12 00:05:40;;;;;;;;;;;14.50;99.90;;;;;;5059446;28;19905;-81
2022/10/12 00:08:06;;;;;;;;;;;14.40;99.90;;;;;;5042024;28;19940;-84
2022/10/12 00:10:31;;;;;;;;;;;14.40;99.90;;;;;;5058929;28;19964;-86
2022/10/12 00:12:58;;;;;;;;;;;14.30;99.90;;;;;;5040260;28;19928;-86
2022/10/12 00:15:24;;;;;;;;;;;14.30;99.90;;;;;;5041868;28;19912;-84
2022/10/12 00:17:49;;;;;;;;;;;14.30;99.90;;;;;;5040951;28;20008;-84
2022/10/12 00:20:15;;;;;;;;;;;14.30;99.90;;;;;;5054755;28;19929;-87
2022/10/12 00:22:41;;;;;;;;;;;14.30;99.90;;;;;;5051374;28;19916;-87
2022/10/12 00:25:07;;;;;;;;;;;14.30;99.90;;;;;;5031370;28;19917;-86
2022/10/12 00:27:32;;;;;;;;;;;14.30;99.90;;;;;;5056107;28;19909;-84
2022/10/12 00:29:58;;;;;;;;;;;14.20;99.90;;;;;;5031400;28;19972;-87
2022/10/12 00:32:24;;;;;;;;;;;14.20;99.90;;;;;;5034882;28;19909;-84
2022/10/12 00:34:49;;;;;;;;;;;14.20;99.90;;;;;;5057907;28;19933;-88
2022/10/12 00:37:15;;;;;;;;;;;14.20;99.90;;;;;;5056884;28;19939;-87
2022/10/12 00:39:41;;;;;;;;;;;14.20;99.90;;;;;;5057298;28;19947;-87
2022/10/12 00:42:09;;;;;;;;;;;14.20;99.90;;;;;;5055998;28;19917;-87
2022/10/12 00:44:37;;;;;;;;;;;14.10;99.90;;;;;;5037763;28;19913;-88
2022/10/12 00:47:21;;;;;;;;;;;14.10;99.90;;;;;;5051916;28;19913;-87
2022/10/12 00:49:49;;;;;;;;;;;14.10;99.90;;;;;;5040308;28;19917;-86
2022/10/12 00:52:17;;;;;;;;;;;14.00;99.90;;;;;;5040866;28;19901;-87
2022/10/12 00:54:45;;;;;;;;;;;14.00;99.90;;;;;;5041684;28;19917;-84
2022/10/12 00:57:13;;;;;;;;;;;14.00;99.90;;;;;;5041220;28;19909;-83
2022/10/12 00:59:43;;;;;;;;;;;14.00;99.90;;;;;;5058372;28;19905;-85
2022/10/12 01:02:08;;;;;;;;;;;14.00;99.90;;;;;;5058396;28;19901;-84
2022/10/12 01:04:35;;;;;;;;;;;14.00;99.90;;;;;;5058470;28;19905;-83
2022/10/12 01:07:00;;;;;;;;;;;13.90;99.90;;;;;;5055985;28;20276;-86
2022/10/12 01:09:26;;;;;;;;;;;13.90;99.90;;;;;;5027726;28;19924;-87
2022/10/12 01:11:52;;;;;;;;;;;13.90;99.90;;;;;;5028254;28;19921;-86
2022/10/12 01:14:18;;;;;;;;;;;13.80;99.90;;;;;;5026382;28;19917;-86
2022/10/12 01:16:50;;;;;;;;;;;13.80;99.90;;;;;;5027668;28;20051;-88
2022/10/12 01:19:35;;;;;;;;;;;13.80;99.90;;;;;;5048005;28;19923;-87
2022/10/12 01:22:09;;;;;;;;;;;13.80;99.90;;;;;;5022704;28;19909;-84
2022/10/12 01:24:54;;;;;;;;;;;13.70;99.90;;;;;;5040754;28;19910;-83
2022/10/12 01:27:39;;;;;;;;;;;13.70;99.90;;;;;;5020437;28;20007;-85
2022/10/12 01:30:06;;;;;;;;;;;13.60;99.90;;;;;;5043907;28;19917;-88
2022/10/12 01:32:37;;;;;;;;;;;13.60;99.90;;;;;;5045165;28;19910;-87
2022/10/12 01:35:09;;;;;;;;;;;13.60;99.90;;;;;;5048284;28;20393;-86
2022/10/12 01:37:48;;;;;;;;;;;13.50;99.90;;;;;;5049931;28;20167;-87
2022/10/12 01:40:18;;;;;;;;;;;13.50;99.90;;;;;;5027169;28;20320;-87
2022/10/12 01:42:44;;;;;;;;;;;13.50;99.90;;;;;;5032142;28;19932;-86
2022/10/12 01:45:11;;;;;;;;;;;13.40;99.90;;;;;;5055097;28;19913;-86
2022/10/12 01:47:38;;;;;;;;;;;13.30;99.90;;;;;;5046840;28;20454;-86
2022/10/12 01:50:05;;;;;;;;;;;13.30;99.90;;;;;;5047207;28;19980;-86
2022/10/12 01:52:35;;;;;;;;;;;13.30;99.90;;;;;;5033254;28;19921;-83
2022/10/12 01:55:07;;;;;;;;;;;13.20;99.90;;;;;;5057263;28;19912;-84
2022/10/12 01:57:35;;;;;;;;;;;13.20;99.90;;;;;;5046450;28;19913;-86
2022/10/12 02:00:06;;;;;;;;;;;13.20;99.90;;;;;;5026349;28;19909;-87
2022/10/12 02:02:36;;;;;;;;;;;13.20;99.90;;;;;;5056125;28;19916;-84
2022/10/12 02:05:11;;;;;;;;;;;13.20;99.90;;;;;;5038290;28;19905;-86
2022/10/12 02:07:48;;;;;;;;;;;13.20;99.90;;;;;;5056124;28;19913;-86
2022/10/12 02:10:16;;;;;;;;;;;13.20;99.90;;;;;;5021663;28;19913;-87
2022/10/12 02:12:44;;;;;;;;;;;13.20;99.90;;;;;;5036498;28;19921;-85
2022/10/12 02:15:10;;;;;;;;;;;13.20;99.90;;;;;;5032691;28;20067;-89
2022/10/12 02:17:37;;;;;;;;;;;13.20;99.90;;;;;;5035824;28;19951;-84
2022/10/12 02:20:03;;;;;;;;;;;13.20;99.90;;;;;;5056911;28;19910;-84
2022/10/12 02:22:34;;;;;;;;;;;13.20;99.90;;;;;;5057055;28;19924;-85
2022/10/12 02:25:05;;;;;;;;;;;13.20;99.90;;;;;;5050210;28;19918;-86
2022/10/12 02:27:33;;;;;;;;;;;13.20;99.90;;;;;;5048059;28;19916;-87
2022/10/12 02:29:59;;;;;;;;;;;13.20;99.90;;;;;;5052685;28;19944;-85
2022/10/12 02:32:41;;;;;;;;;;;13.20;99.90;;;;;;5056561;28;19905;-86
2022/10/12 02:35:07;;;;;;;;;;;13.20;99.90;;;;;;5053688;28;19919;-87
2022/10/12 02:37:47;;;;;;;;;;;13.20;99.90;;;;;;5044564;28;20007;-86
2022/10/12 02:40:20;;;;;;;;;;;13.20;99.90;;;;;;5024892;28;20264;-90
2022/10/12 02:42:50;;;;;;;;;;;13.10;99.90;;;;;;5043214;28;20010;-87
2022/10/12 02:45:17;;;;;;;;;;;13.10;99.90;;;;;;5043484;28;19974;-86
2022/10/12 02:47:44;;;;;;;;;;;13.10;99.90;;;;;;5034913;28;19916;-84
2022/10/12 02:50:10;;;;;;;;;;;13.00;99.90;;;;;;5056176;28;19905;-84
2022/10/12 02:52:36;;;;;;;;;;;12.90;99.90;;;;;;5039874;28;19913;-84
2022/10/12 02:55:02;;;;;;;;;;;12.90;99.90;;;;;;5054048;28;19956;-85
2022/10/12 02:57:27;;;;;;;;;;;12.90;99.90;;;;;;5047436;28;19916;-88
2022/10/12 02:59:53;;;;;;;;;;;12.90;99.90;;;;;;5024786;28;19980;-87
2022/10/12 03:02:19;;;;;;;;;;;12.80;99.90;;;;;;5044634;28;19909;-86
2022/10/12 03:04:44;;;;;;;;;;;12.70;99.90;;;;;;5044712;28;19919;-88
2022/10/12 03:07:10;;;;;;;;;;;12.70;99.90;;;;;;5043054;28;19917;-84
2022/10/12 03:09:36;;;;;;;;;;;12.60;99.90;;;;;;5043311;28;19924;-87
2022/10/12 03:12:01;;;;;;;;;;;12.50;99.90;;;;;;5027831;28;20097;-87
2022/10/12 03:14:27;;;;;;;;;;;12.50;99.90;;;;;;5048996;28;19948;-87
2022/10/12 03:16:53;;;;;;;;;;;12.40;99.90;;;;;;5047697;28;19913;-86
2022/10/12 03:19:18;;;;;;;;;;;12.40;99.90;;;;;;5027351;28;19924;-87
2022/10/12 03:21:44;;;;;;;;;;;12.40;99.90;;;;;;5033709;28;19909;-86
2022/10/12 03:24:10;;;;;;;;;;;12.30;99.90;;;;;;5047235;28;19974;-88
2022/10/12 03:26:36;;;;;;;;;;;12.20;99.90;;;;;;5046500;28;19913;-88
2022/10/12 03:29:02;;;;;;;;;;;12.20;99.90;;;;;;5054051;28;19911;-89
2022/10/12 03:31:27;;;;;;;;;;;12.30;99.90;;;;;;5047376;28;19909;-87
2022/10/12 03:33:53;;;;;;;;;;;12.20;99.90;;;;;;5042405;28;19905;-85
2022/10/12 03:36:19;;;;;;;;;;;12.20;99.90;;;;;;5058128;28;19919;-83
2022/10/12 03:38:45;;;;;;;;;;;12.10;99.90;;;;;;5042599;28;19905;-84
2022/10/12 03:41:11;;;;;;;;;;;12.10;99.90;;;;;;5043127;28;19912;-86
2022/10/12 03:43:36;;;;;;;;;;;12.00;99.90;;;;;;5042866;28;19944;-85
2022/10/12 03:46:02;;;;;;;;;;;12.00;99.90;;;;;;5059857;28;19902;-84
2022/10/12 03:48:28;;;;;;;;;;;11.90;99.90;;;;;;5037858;28;19924;-86
2022/10/12 03:50:53;;;;;;;;;;;11.90;99.90;;;;;;5051867;28;19897;-87
2022/10/12 03:53:19;;;;;;;;;;;11.90;99.90;;;;;;5059262;28;19905;-86
2022/10/12 03:55:45;;;;;;;;;;;11.80;99.90;;;;;;5058609;28;19905;-86
2022/10/12 03:58:12;;;;;;;;;;;11.80;99.90;;;;;;5053346;28;20334;-86
2022/10/12 04:00:38;;;;;;;;;;;11.80;99.90;;;;;;5032089;28;19973;-86
2022/10/12 04:03:04;;;;;;;;;;;11.80;99.90;;;;;;5034232;28;19901;-83
2022/10/12 04:05:30;;;;;;;;;;;11.70;99.90;;;;;;5058991;28;19909;-84
2022/10/12 04:07:56;;;;;;;;;;;11.70;99.90;;;;;;5057199;28;19917;-84
2022/10/12 04:10:22;;;;;;;;;;;11.70;99.90;;;;;;5042103;28;19908;-85
2022/10/12 04:12:48;;;;;;;;;;;11.70;99.90;;;;;;5059282;28;19944;-86
2022/10/12 04:15:13;;;;;;;;;;;11.70;99.90;;;;;;5058036;28;19917;-88
2022/10/12 04:17:39;;;;;;;;;;;11.70;99.90;;;;;;5041415;28;19913;-84
2022/10/12 04:20:05;;;;;;;;;;;11.70;99.90;;;;;;5059236;28;19925;-83
2022/10/12 04:22:31;;;;;;;;;;;11.80;99.90;;;;;;5041529;28;19916;-84
2022/10/12 04:24:57;;;;;;;;;;;11.80;99.90;;;;;;5041517;28;19901;-85
2022/10/12 04:27:23;;;;;;;;;;;11.80;99.90;;;;;;5059081;28;19924;-85
2022/10/12 04:29:49;;;;;;;;;;;11.80;99.90;;;;;;5056389;28;19921;-88
2022/10/12 04:32:15;;;;;;;;;;;11.90;99.90;;;;;;5049238;28;19913;-87
2022/10/12 04:34:40;;;;;;;;;;;11.90;99.90;;;;;;5034862;28;19901;-86
2022/10/12 04:37:06;;;;;;;;;;;11.90;99.90;;;;;;5041844;28;19929;-86
2022/10/12 04:39:32;;;;;;;;;;;11.90;99.90;;;;;;5051122;28;19909;-88
2022/10/12 04:41:58;;;;;;;;;;;11.90;99.90;;;;;;5039678;28;19927;-85
2022/10/12 04:44:23;;;;;;;;;;;11.90;99.90;;;;;;5058629;28;19901;-86
2022/10/12 04:46:49;;;;;;;;;;;11.90;99.90;;;;;;5038506;28;19944;-86
2022/10/12 04:49:15;;;;;;;;;;;11.90;99.90;;;;;;5058303;28;19901;-85
2022/10/12 04:51:41;;;;;;;;;;;11.90;99.90;;;;;;5058907;28;19916;-84
2022/10/12 04:54:08;;;;;;;;;;;11.90;99.90;;;;;;5058879;28;19910;-84
2022/10/12 04:56:34;;;;;;;;;;;11.90;99.90;;;;;;5058786;28;19945;-85
2022/10/12 04:58:59;;;;;;;;;;;12.00;99.90;;;;;;5040838;28;19920;-87
2022/10/12 05:01:25;;;;;;;;;;;12.00;99.90;;;;;;5035615;28;19935;-86
2022/10/12 05:03:51;;;;;;;;;;;12.00;99.90;;;;;;5052544;28;19996;-87
2022/10/12 05:06:17;;;;;;;;;;;12.00;99.90;;;;;;5053696;28;19917;-88
2022/10/12 05:08:42;;;;;;;;;;;12.00;99.90;;;;;;5052454;28;19976;-87
2022/10/12 05:11:08;;;;;;;;;;;12.00;99.90;;;;;;5056606;28;19939;-86
2022/10/12 05:13:34;;;;;;;;;;;11.90;99.90;;;;;;5039689;23;20008;-79
2022/10/12 05:15:59;;;;;;;;;;;11.90;99.90;;;;;;5030700;28;19932;-78
2022/10/12 05:18:25;;;;;;;;;;;11.90;99.90;;;;;;5030551;28;19980;-79
2022/10/12 05:20:50;;;;;;;;;;;11.90;99.90;;;;;;5030828;28;19918;-79
2022/10/12 05:23:16;;;;;;;;;;;11.90;99.90;;;;;;5032161;28;19917;-78
2022/10/12 05:25:42;;;;;;;;;;;11.90;99.90;;;;;;5032871;28;19897;-78
2022/10/12 05:28:08;;;;;;;;;;;11.90;99.90;;;;;;5027651;28;19916;-78
2022/10/12 05:30:34;;;;;;;;;;;11.90;99.90;;;;;;5030793;28;19914;-80
2022/10/12 05:32:59;;;;;;;;;;;12.00;99.90;;;;;;5028590;28;19937;-78
2022/10/12 05:35:25;;;;;;;;;;;12.00;99.90;;;;;;5030316;28;20022;-78
2022/10/12 05:37:51;;;;;;;;;;;12.00;99.90;;;;;;5031028;28;19917;-79
2022/10/12 05:40:17;;;;;;;;;;;12.00;99.90;;;;;;5030478;28;19964;-78
2022/10/12 05:42:44;;;;;;;;;;;12.00;99.90;;;;;;5032121;28;19909;-79
2022/10/12 05:45:10;;;;;;;;;;;12.00;99.90;;;;;;5029866;28;19925;-79
2022/10/12 05:47:35;;;;;;;;;;;12.00;99.90;;;;;;5029817;28;19996;-80
2022/10/12 05:50:02;;;;;;;;;;;12.00;99.90;;;;;;5028511;28;20200;-78
2022/10/12 05:52:27;;;;;;;;;;;12.00;99.90;;;;;;5015140;28;19898;-78
2022/10/12 05:54:53;;;;;;;;;;;12.00;99.90;;;;;;5029520;28;20001;-78
2022/10/12 05:57:18;;;;;;;;;;;12.10;99.90;;;;;;5028101;28;20257;-79
2022/10/12 05:59:44;;;;;;;;;;;12.10;99.90;;;;;;5028124;28;19913;-80
2022/10/12 06:02:13;;;;;;;;;;;12.10;99.90;;;;;;5030391;28;19913;-79
2022/10/12 06:04:39;;;;;;;;;;;12.10;99.90;;;;;;5030145;28;19960;-79
2022/10/12 06:07:05;;;;;;;;;;;12.20;99.90;;;;;;5029362;28;19914;-81
2022/10/12 06:09:31;;;;;;;;;;;12.20;99.90;;;;;;5025297;28;20414;-80
2022/10/12 06:11:57;;;;;;;;;;;12.20;99.90;;;;;;5022795;28;19909;-80
2022/10/12 06:14:23;;;;;;;;;;;12.30;99.90;;;;;;5022693;28;19917;-79
2022/10/12 06:16:48;;;;;;;;;;;12.40;99.90;;;;;;5020366;28;20436;-80
2022/10/12 06:19:14;;;;;;;;;;;12.40;99.90;;;;;;5019710;28;20079;-82
2022/10/12 06:21:40;;;;;;;;;;;12.40;99.90;;;;;;5021622;28;19909;-80
2022/10/12 06:24:05;;;;;;;;;;;12.40;99.90;;;;;;5016201;28;19914;-81
2022/10/12 06:26:31;;;;;;;;;;;12.40;99.90;;;;;;5015634;28;19924;-79
2022/10/12 06:28:59;;;;;;;;;;;12.40;99.90;;;;;;5015974;28;20285;-80
2022/10/12 06:31:25;;;;;;;;;;;12.40;99.90;;;;;;5015533;28;19935;-78
2022/10/12 06:33:52;;;;;;;;;;;12.50;99.90;;;;;;5015302;28;19957;-80
2022/10/12 06:36:18;;;;;;;;;;;12.50;99.90;;;;;;5015878;28;19909;-80
2022/10/12 06:38:43;;;;;;;;;;;12.60;99.90;;;;;;5014488;28;20056;-80
2022/10/12 06:41:09;;;;;;;;;;;12.60;99.90;;;;;;5018647;28;19917;-82
2022/10/12 06:43:35;;;;;;;;;;;12.80;99.90;;;;;;5015621;28;19914;-78
2022/10/12 06:46:01;;;;;;;;;;;12.80;99.90;;;;;;5017483;28;20305;-80
2022/10/12 06:48:27;;;;;;;;;;;12.90;99.90;;;;;;5017702;28;20397;-79
2022/10/12 06:50:53;;;;;;;;;;;12.90;99.90;;;;;;5018186;28;19909;-80
2022/10/12 06:53:18;;;;;;;;;;;13.00;99.90;;;;;;5018074;28;19944;-81
2022/10/12 06:55:44;;;;;;;;;;;13.10;99.90;;;;;;5019015;28;19910;-80
2022/10/12 06:58:10;;;;;;;;;;;13.20;99.90;;;;;;5018479;28;19940;-80
2022/10/12 07:00:35;;;;;;;;;;;13.20;99.90;;;;;;5019965;28;20017;-79
2022/10/12 07:03:01;;;;;;;;;;;13.20;99.90;;;;;;5016817;28;19936;-80
2022/10/12 07:05:27;;;;;;;;;;;13.30;99.90;;;;;;5017838;28;20196;-80
2022/10/12 07:07:52;;;;;;;;;;;13.40;99.90;;;;;;5018865;28;19921;-78
2022/10/12 07:10:18;;;;;;;;;;;13.50;99.90;;;;;;5022025;28;19913;-80
2022/10/12 07:12:44;;;;;;;;;;;13.70;99.90;;;;;;5031630;28;19952;-79
2022/10/12 07:15:10;;;;;;;;;;;13.80;99.90;;;;;;5044930;28;20265;-79
2022/10/12 07:17:35;;;;;;;;;;;13.90;99.90;;;;;;5039506;28;19913;-81
2022/10/12 07:20:01;;;;;;;;;;;14.00;99.90;;;;;;5020145;28;20383;-81
2022/10/12 07:22:27;;;;;;;;;;;14.20;99.90;;;;;;5039317;28;20004;-79
2022/10/12 07:24:52;;;;;;;;;;;14.30;99.90;;;;;;5024609;28;19915;-79
2022/10/12 07:27:18;;;;;;;;;;;14.40;99.90;;;;;;5042494;28;19921;-79
2022/10/12 07:29:44;;;;;;;;;;;14.50;99.90;;;;;;5042047;28;19977;-79
2022/10/12 07:32:09;;;;;;;;;;;14.60;99.90;;;;;;5042878;28;19924;-79
2022/10/12 07:34:35;;;;;;;;;;;14.60;99.90;;;;;;5045027;28;19917;-77
2022/10/12 07:37:01;;;;;;;;;;;14.60;99.90;;;;;;5044140;28;19913;-78
2022/10/12 07:39:26;;;;;;;;;;;14.70;99.90;;;;;;5041444;28;20492;-81
2022/10/12 07:41:52;;;;;;;;;;;14.80;99.90;;;;;;5042563;28;19917;-80
2022/10/12 07:44:18;;;;;;;;;;;14.70;99.90;;;;;;5044953;28;19976;-80
2022/10/12 07:46:44;;;;;;;;;;;14.80;99.90;;;;;;5046802;28;19924;-81
2022/10/12 07:49:13;;;;;;;;;;;14.90;99.90;;;;;;5048568;28;19903;-80
2022/10/12 07:51:39;;;;;;;;;;;15.00;99.90;;;;;;5054179;28;19902;-78
2022/10/12 07:54:05;;;;;;;;;;;15.10;99.90;;;;;;5054003;28;19974;-78
2022/10/12 07:56:31;;;;;;;;;;;15.30;99.90;;;;;;5035112;28;19913;-77
2022/10/12 07:58:57;;;;;;;;;;;15.30;99.90;;;;;;5054172;28;19980;-78
2022/10/12 08:01:24;;;;;;;;;;;15.60;99.90;;;;;;5040969;28;19920;-79
2022/10/12 08:03:51;;;;;;;;;;;15.60;99.90;;;;;;5037544;28;19963;-81
2022/10/12 08:06:18;;;;;;;;;;;15.80;99.90;;;;;;5038121;28;20304;-79
2022/10/12 08:08:44;;;;;;;;;;;16.00;99.90;;;;;;5019021;28;19950;-78
2022/10/12 08:11:10;;;;;;;;;;;16.00;99.90;;;;;;5036546;28;19913;-78
2022/10/12 08:13:36;;;;;;;;;;;15.90;99.90;;;;;;5039414;28;19928;-80
2022/10/12 08:16:02;;;;;;;;;;;15.70;99.90;;;;;;5042778;28;19983;-78
2022/10/12 08:18:28;;;;;;;;;;;15.60;99.90;;;;;;5040284;28;19909;-79
2022/10/12 08:20:53;;;;;;;;;;;15.50;99.90;;;;;;5043397;28;20376;-78
2022/10/12 08:23:19;;;;;;;;;;;15.50;99.90;;;;;;5045141;28;20368;-79
2022/10/12 08:25:55;;;;;;;;;;;15.60;99.90;;;;;;5043323;28;19917;-81
2022/10/12 08:28:20;;;;;;;;;;;15.50;99.90;;;;;;5042022;28;19935;-80
2022/10/12 08:30:46;;;;;;;;;;;15.20;99.90;;;;;;5038782;28;19974;-80
2022/10/12 08:33:14;;;;;;;;;;;15.10;99.90;;;;;;5041177;28;19941;-79
2022/10/12 08:35:40;;;;;;;;;;;15.10;99.90;;;;;;5039764;28;19909;-79
2022/10/12 08:38:07;;;;;;;;;;;15.20;99.90;;;;;;5039687;28;19913;-79
2022/10/12 08:40:35;;;;;;;;;;;15.30;99.90;;;;;;5020111;28;19959;-80
2022/10/12 08:43:24;;;;;;;;;;;15.20;99.90;;;;;;5021475;28;19924;-80
2022/10/12 08:45:51;;;;;;;;;;;15.30;99.90;;;;;;5013324;28;19917;-81
2022/10/12 08:48:29;;;;;;;;;;;15.30;99.90;;;;;;5040273;28;20004;-82
2022/10/12 08:50:57;;;;;;;;;;;15.40;99.90;;;;;;5006105;28;20022;-81
2022/10/12 08:53:35;;;;;;;;;;;15.60;99.90;;;;;;5044009;28;19909;-79
2022/10/12 08:56:01;;;;;;;;;;;15.80;99.90;;;;;;5042783;28;19923;-79
2022/10/12 08:58:30;;;;;;;;;;;16.00;99.90;;;;;;5023155;28;19949;-80
2022/10/12 09:01:00;;;;;;;;;;;16.10;99.90;;;;;;5042510;28;19913;-82
2022/10/12 09:03:42;;;;;;;;;;;16.10;99.90;;;;;;5042871;28;19909;-78
2022/10/12 09:06:17;;;;;;;;;;;16.20;99.90;;;;;;5042084;28;20258;-82
2022/10/12 09:08:54;;;;;;;;;;;16.30;99.90;;;;;;5045011;28;19940;-78
2022/10/12 09:11:46;;;;;;;;;;;16.30;99.90;;;;;;5041144;28;19913;-79
2022/10/12 09:14:17;;;;;;;;;;;16.40;99.90;;;;;;5001950;28;19932;-80
2022/10/12 09:16:44;;;;;;;;;;;16.90;99.90;;;;;;5042815;28;19917;-80
2022/10/12 09:19:26;;;;;;;;;;;17.20;99.90;;;;;;5023672;28;19913;-80
2022/10/12 09:21:52;;;;;;;;;;;17.70;99.90;;;;;;5042159;28;19913;-79
2022/10/12 09:24:29;;;;;;;;;;;18.50;99.90;;;;;;5039791;28;20292;-79
2022/10/12 09:26:57;;;;;;;;;;;19.30;99.00;;;;;;5037336;28;19917;-80
2022/10/12 09:29:24;;;;;;;;;;;19.90;98.20;;;;;;5019612;28;20010;-81
2022/10/12 09:32:12;;;;;;;;;;;20.80;96.90;;;;;;5003890;28;20464;-79
2022/10/12 09:34:38;;;;;;;;;;;21.20;95.80;;;;;;5020243;28;20011;-80
2022/10/12 09:37:04;;;;;;;;;;;21.90;93.70;;;;;;5038362;28;19968;-79
2022/10/12 09:39:34;;;;;;;;;;;22.30;92.90;;;;;;5025927;28;20213;-80
2022/10/12 09:42:00;;;;;;;;;;;21.90;92.40;;;;;;5041500;28;19920;-79
2022/10/12 09:44:28;;;;;;;;;;;22.00;92.00;;;;;;5041633;28;19948;-78
2022/10/12 09:46:55;;;;;;;;;;;21.80;92.00;;;;;;5043716;28;19917;-80
2022/10/12 09:49:21;;;;;;;;;;;21.80;91.80;;;;;;5026263;28;19909;-78
2022/10/12 09:51:47;;;;;;;;;;;21.90;91.60;;;;;;5040816;28;19967;-82
2022/10/12 09:54:21;;;;;;;;;;;21.70;91.40;;;;;;5036611;28;19909;-81
2022/10/12 09:56:49;;;;;;;;;;;21.50;91.60;;;;;;5019037;28;19933;-79
2022/10/12 09:59:29;;;;;;;;;;;21.50;91.60;;;;;;5036099;28;20285;-79
2022/10/12 10:02:04;;;;;;;;;;;21.60;91.40;;;;;;5019094;28;19913;-79
2022/10/12 10:04:30;;;;;;;;;;;22.20;90.80;;;;;;5023851;28;19919;-78
2022/10/12 10:07:10;;;;;;;;;;;22.90;89.40;;;;;;5039596;28;20000;-78
2022/10/12 10:09:36;;;;;;;;;;;23.90;87.20;;;;;;5036485;28;19960;-79
2022/10/12 10:12:18;;;;;;;;;;;25.20;83.60;;;;;;5034837;28;19967;-81
2022/10/12 10:14:44;;;;;;;;;;;26.30;80.50;;;;;;5036458;28;20022;-79
2022/10/12 10:17:21;;;;;;;;;;;26.30;77.90;;;;;;5002285;28;19913;-80
2022/10/12 10:19:51;;;;;;;;;;;26.00;77.70;;;;;;5034761;28;19963;-80
2022/10/12 10:22:17;;;;;;;;;;;25.10;78.40;;;;;;5038981;28;19909;-81
2022/10/12 10:24:48;;;;;;;;;;;24.40;79.40;;;;;;5021840;28;19920;-80
2022/10/12 10:27:32;;;;;;;;;;;24.10;80.10;;;;;;5041397;28;19917;-81
2022/10/12 10:30:07;;;;;;;;;;;23.70;81.10;;;;;;5039270;28;19964;-80
2022/10/12 10:32:33;;;;;;;;;;;23.00;81.70;;;;;;5024168;28;19913;-80
2022/10/12 10:35:16;;;;;;;;;;;22.50;82.90;;;;;;5041143;28;19939;-80
2022/10/12 10:37:49;;;;;;;;;;;22.30;83.10;;;;;;5020987;28;19913;-80
2022/10/12 10:40:20;;;;;;;;;;;22.40;83.30;;;;;;5038206;28;19913;-78
2022/10/12 10:42:51;;;;;;;;;;;22.30;83.00;;;;;;5039204;28;19913;-80
2022/10/12 10:45:23;;;;;;;;;;;22.70;82.80;;;;;;5038766;28;19920;-80
2022/10/12 10:47:49;;;;;;;;;;;23.00;82.00;;;;;;5042742;28;20028;-80
2022/10/12 10:50:41;;;;;;;;;;;23.00;82.00;;;;;;5040106;28;20380;-81
2022/10/12 10:53:26;;;;;;;;;;;23.10;81.60;;;;;;5036096;28;19947;-78
2022/10/12 10:56:07;;;;;;;;;;;23.30;81.10;;;;;;5038001;28;19966;-79
2022/10/12 10:58:35;;;;;;;;;;;23.10;81.10;;;;;;5038060;28;20288;-80
2022/10/12 11:01:05;;;;;;;;;;;22.70;81.70;;;;;;5039948;28;20347;-79
2022/10/12 11:03:38;;;;;;;;;;;22.40;82.50;;;;;;5026347;28;19913;-80
2022/10/12 11:06:11;;;;;;;;;;;22.50;82.40;;;;;;5046680;28;19952;-82
2022/10/12 11:08:38;;;;;;;;;;;23.30;81.40;;;;;;5043627;28;19921;-78
2022/10/12 11:11:19;;;;;;;;;;;23.40;81.00;;;;;;5043295;28;20365;-82
2022/10/12 11:13:54;;;;;;;;;;;23.40;80.80;;;;;;5082915;23;20078;-87
2022/10/12 11:16:35;;;;;;;;;;;23.30;81.00;;;;;;5058862;28;19924;-88
2022/10/12 11:19:19;;;;;;;;;;;22.90;81.30;;;;;;5042694;28;19905;-84
2022/10/12 11:21:48;;;;;;;;;;;22.70;81.80;;;;;;5026400;28;19909;-86
2022/10/12 11:24:16;;;;;;;;;;;22.70;81.90;;;;;;5026489;28;19918;-84
2022/10/12 11:26:47;;;;;;;;;;;22.90;81.50;;;;;;5059917;28;19913;-84
2022/10/12 11:29:16;;;;;;;;;;;22.70;81.20;;;;;;5041239;28;19905;-87
2022/10/12 11:31:46;;;;;;;;;;;22.40;82.00;;;;;;5052767;28;19916;-87
2022/10/12 11:34:15;;;;;;;;;;;22.00;82.00;;;;;;5051564;28;19913;-87
2022/10/12 11:36:42;;;;;;;;;;;21.80;83.20;;;;;;5052602;28;19916;-86
2022/10/12 11:39:15;;;;;;;;;;;22.50;82.30;;;;;;5059306;28;19916;-85
2022/10/12 11:41:47;;;;;;;;;;;23.10;80.70;;;;;;5042613;28;19920;-86
2022/10/12 11:44:12;;;;;;;;;;;23.70;79.40;;;;;;5042148;28;19905;-83
2022/10/12 11:46:45;;;;;;;;;;;23.80;78.60;;;;;;5058715;28;19922;-88
2022/10/12 11:49:30;;;;;;;;;;;23.90;78.50;;;;;;5036925;28;20038;-87
2022/10/12 11:51:57;;;;;;;;;;;23.70;78.80;;;;;;5037937;28;19901;-87
2022/10/12 11:54:30;;;;;;;;;;;23.70;78.70;;;;;;5058588;28;19901;-86
2022/10/12 11:57:00;;;;;;;;;;;23.80;78.70;;;;;;5059296;28;19913;-86
2022/10/12 11:59:29;;;;;;;;;;;24.70;77.50;;;;;;5041668;28;19928;-86
2022/10/12 12:02:07;;;;;;;;;;;26.10;75.50;;;;;;5059112;28;19901;-85
2022/10/12 12:04:34;;;;;;;;;;;26.30;74.00;;;;;;5041600;28;19909;-87
2022/10/12 12:07:15;;;;;;;;;;;26.20;74.00;;;;;;5058621;28;19902;-87
2022/10/12 12:09:43;;;;;;;;;;;27.10;72.40;;;;;;5058351;28;19912;-86
2022/10/12 12:12:15;;;;;;;;;;;27.60;71.40;;;;;;5058588;28;19914;-86
2022/10/12 12:14:44;;;;;;;;;;;28.00;70.50;;;;;;5041293;28;19936;-85
2022/10/12 12:17:16;;;;;;;;;;;28.40;69.30;;;;;;5041857;28;19909;-85
2022/10/12 12:19:42;;;;;;;;;;;27.90;69.20;;;;;;5041277;28;19918;-87
2022/10/12 12:22:08;;;;;;;;;;;27.80;69.30;;;;;;5058237;28;19908;-85
2022/10/12 12:24:35;;;;;;;;;;;27.40;69.70;;;;;;5041374;28;19973;-83
2022/10/12 12:27:00;;;;;;;;;;;26.70;70.00;;;;;;5041660;28;19901;-84
2022/10/12 12:29:27;;;;;;;;;;;25.40;71.50;;;;;;5041275;28;19935;-83
2022/10/12 12:31:55;;;;;;;;;;;24.60;73.10;;;;;;5024500;28;19901;-83
2022/10/12 12:34:21;;;;;;;;;;;24.00;74.20;;;;;;5041431;28;19905;-86
2022/10/12 12:36:48;;;;;;;;;;;23.50;75.00;;;;;;5059010;28;19909;-87
2022/10/12 12:39:26;;;;;;;;;;;23.30;75.90;;;;;;5024177;28;19917;-87
2022/10/12 12:41:54;;;;;;;;;;;23.20;76.60;;;;;;5055101;28;19917;-87
2022/10/12 12:44:41;;;;;;;;;;;23.00;76.70;;;;;;5035981;28;20009;-86
2022/10/12 12:47:08;;;;;;;;;;;22.70;77.50;;;;;;5058443;28;19901;-85
2022/10/12 12:49:36;;;;;;;;;;;22.40;78.80;;;;;;5037820;28;19937;-86
2022/10/12 12:52:10;;;;;;;;;;;22.20;79.50;;;;;;5049878;28;19920;-86
2022/10/12 12:54:40;;;;;;;;;;;22.00;79.70;;;;;;5049333;28;20027;-86
2022/10/12 12:57:06;;;;;;;;;;;21.70;80.10;;;;;;5051525;28;20015;-87
2022/10/12 12:59:31;;;;;;;;;;;21.50;80.90;;;;;;5033868;28;19909;-87
2022/10/12 13:02:22;;;;;;;;;;;21.30;81.50;;;;;;5053327;28;19913;-86
2022/10/12 13:04:48;;;;;;;;;;;21.20;81.50;;;;;;5054851;28;19913;-88
2022/10/12 13:07:13;;;;;;;;;;;21.20;82.40;;;;;;5029545;28;19971;-87
2022/10/12 13:09:51;;;;;;;;;;;21.20;82.40;;;;;;5047651;28;19917;-89
2022/10/12 13:12:26;;;;;;;;;;;21.20;82.20;;;;;;5045315;28;19924;-87
2022/10/12 13:15:19;;;;;;;;;;;21.00;81.90;;;;;;5028722;28;19917;-88
2022/10/12 13:17:50;;;;;;;;;;;20.80;82.30;;;;;;5029118;28;19917;-87
2022/10/12 13:20:19;;;;;;;;;;;20.40;83.50;;;;;;5045757;28;19913;-88
2022/10/12 13:22:46;;;;;;;;;;;20.20;83.60;;;;;;5046807;28;19916;-89
2022/10/12 13:25:14;;;;;;;;;;;20.00;84.10;;;;;;5045532;28;19945;-87
2022/10/12 13:27:48;;;;;;;;;;;20.10;84.30;;;;;;5028262;28;19913;-88
2022/10/12 13:30:26;;;;;;;;;;;20.10;84.80;;;;;;5045951;28;20278;-88
2022/10/12 13:33:13;;;;;;;;;;;20.10;85.30;;;;;;5030287;28;19976;-86
2022/10/12 13:35:50;;;;;;;;;;;20.20;85.60;;;;;;5048677;28;19985;-88
2022/10/12 13:38:24;;;;;;;;;;;20.30;85.30;;;;;;5030550;28;19931;-88
2022/10/12 13:41:00;;;;;;;;;;;20.40;85.90;;;;;;5047244;28;19917;-88
2022/10/12 13:43:32;;;;;;;;;;;20.50;86.10;;;;;;5030379;28;19913;-85
2022/10/12 13:45:58;;;;;;;;;;;20.60;86.00;;;;;;5040122;28;19967;-84
2022/10/12 13:48:24;;;;;;;;;;;20.70;86.00;;;;;;5040244;28;19902;-85
2022/10/12 13:51:01;;;;;;;;;;;20.60;86.90;;;;;;5040414;28;20815;-84
2022/10/12 13:53:33;;;;;;;;;;;20.40;87.30;;;;;;5040433;28;19905;-86
2022/10/12 13:56:09;;;;;;;;;;;20.30;87.50;;;;;;5057041;28;19939;-85
2022/10/12 13:58:35;;;;;;;;;;;20.30;88.10;;;;;;5057483;28;19943;-86
2022/10/12 14:01:01;;;;;;;;;;;20.30;89.40;;;;;;5057732;28;19897;-85
2022/10/12 14:03:35;;;;;;;;;;;20.20;89.80;;;;;;5057568;28;19905;-85
2022/10/12 14:06:01;;;;;;;;;;;20.00;90.00;;;;;;5057577;28;19939;-86
2022/10/12 14:08:27;;;;;;;;;;;20.10;90.40;;;;;;5056472;28;19901;-87
2022/10/12 14:10:56;;;;;;;;;;;20.00;90.60;;;;;;5050652;28;19913;-89
2022/10/12 14:13:26;;;;;;;;;;;19.90;90.80;;;;;;5050340;28;19924;-85
2022/10/12 14:15:52;;;;;;;;;;;19.70;91.20;;;;;;5050311;28;19921;-86
2022/10/12 14:18:30;;;;;;;;;;;19.70;91.50;;;;;;5031955;28;19940;-88
2022/10/12 14:21:15;;;;;;;;;;;19.60;91.90;;;;;;5049434;28;19951;-87
2022/10/12 14:23:45;;;;;;;;;;;19.50;92.10;;;;;;5048146;28;19913;-87
2022/10/12 14:26:33;;;;;;;;;;;19.40;92.50;;;;;;5030924;28;19921;-88